sensor_id;sensor_type;location;lat;lon;timestamp;temperature;humidity
3980;DHT22;2004;52.452;13.120;2022-07-06T00:01:50;16.90;74.00
3980;DHT22;2004;52.452;13.120;2022-07-06T00:09:41;16.80;74.00
3980;DHT22;2004;52.452;13.120;2022-07-06T00:17:32;16.70;75.30
3980;DHT22;2004;52.452;13.120;2022-07-06T00:25:22;16.60;76.00
3980;DHT22;2004;52.452;13.120;2022-07-06T00:33:13;16.60;77.00
3980;DHT22;2004;52.452;13.120;2022-07-06T00:41:04;16.50;79.40
3980;DHT22;2004;52.452;13.120;2022-07-06T00:48:54;16.40;81.10
3980;DHT22;2004;52.452;13.120;2022-07-06T00:56:45;16.20;82.00
3980;DHT22;2004;52.452;13.120;2022-07-06T01:04:36;16.10;84.90
3980;DHT22;2004;52.452;13.120;2022-07-06T01:12:27;16.00;87.10
3980;DHT22;2004;52.452;13.120;2022-07-06T01:20:20;15.90;91.00
3980;DHT22;2004;52.452;13.120;2022-07-06T01:28:11;15.80;93.00
3980;DHT22;2004;52.452;13.120;2022-07-06T01:36:02;15.80;95.40
3980;DHT22;2004;52.452;13.120;2022-07-06T01:43:52;15.80;95.90
3980;DHT22;2004;52.452;13.120;2022-07-06T01:51:43;15.80;97.10
3980;DHT22;2004;52.452;13.120;2022-07-06T01:59:33;15.80;99.40
3980;DHT22;2004;52.452;13.120;2022-07-06T02:07:24;15.80;99.90
3980;DHT22;2004;52.452;13.120;2022-07-06T02:15:15;15.80;99.90
3980;DHT22;2004;52.452;13.120;2022-07-06T02:23:05;15.80;99.90
3980;DHT22;2004;52.452;13.120;2022-07-06T02:30:56;15.80;99.90
3980;DHT22;2004;52.452;13.120;2022-07-06T02:38:46;15.80;99.90
3980;DHT22;2004;52.452;13.120;2022-07-06T02:46:37;15.80;99.90
3980;DHT22;2004;52.452;13.120;2022-07-06T02:54:27;15.80;99.90
3980;DHT22;2004;52.452;13.120;2022-07-06T03:02:18;15.80;99.90
3980;DHT22;2004;52.452;13.120;2022-07-06T03:10:09;15.80;99.90
3980;DHT22;2004;52.452;13.120;2022-07-06T03:17:59;15.80;99.90
3980;DHT22;2004;52.452;13.120;2022-07-06T03:25:50;15.80;99.90
3980;DHT22;2004;52.452;13.120;2022-07-06T03:33:40;15.80;99.90
3980;DHT22;2004;52.452;13.120;2022-07-06T03:41:31;15.70;99.90
3980;DHT22;2004;52.452;13.120;2022-07-06T03:49:22;15.70;99.90
3980;DHT22;2004;52.452;13.120;2022-07-06T03:57:17;15.70;99.90
3980;DHT22;2004;52.452;13.120;2022-07-06T04:05:08;15.70;99.90
3980;DHT22;2004;52.452;13.120;2022-07-06T04:12:58;15.70;99.90
3980;DHT22;2004;52.452;13.120;2022-07-06T04:20:49;15.70;99.90
3980;DHT22;2004;52.452;13.120;2022-07-06T04:28:39;15.70;99.90
3980;DHT22;2004;52.452;13.120;2022-07-06T04:36:30;15.70;99.90
3980;DHT22;2004;52.452;13.120;2022-07-06T04:44:21;15.70;99.90
3980;DHT22;2004;52.452;13.120;2022-07-06T04:52:11;15.70;99.90
3980;DHT22;2004;52.452;13.120;2022-07-06T05:00:04;15.70;99.90
3980;DHT22;2004;52.452;13.120;2022-07-06T05:07:55;15.80;99.90
3980;DHT22;2004;52.452;13.120;2022-07-06T05:15:45;15.80;99.90
3980;DHT22;2004;52.452;13.120;2022-07-06T05:23:36;15.90;99.90
3980;DHT22;2004;52.452;13.120;2022-07-06T05:31:26;16.00;99.90
3980;DHT22;2004;52.452;13.120;2022-07-06T05:39:17;16.10;99.90
3980;DHT22;2004;52.452;13.120;2022-07-06T05:47:10;16.10;99.90
3980;DHT22;2004;52.452;13.120;2022-07-06T05:55:19;16.30;99.90
3980;DHT22;2004;52.452;13.120;2022-07-06T06:03:10;16.30;99.90
3980;DHT22;2004;52.452;13.120;2022-07-06T06:11:00;16.40;99.90
3980;DHT22;2004;52.452;13.120;2022-07-06T06:18:51;16.40;99.90
3980;DHT22;2004;52.452;13.120;2022-07-06T06:26:41;16.40;99.90
3980;DHT22;2004;52.452;13.120;2022-07-06T06:34:32;16.60;99.90
3980;DHT22;2004;52.452;13.120;2022-07-06T06:42:23;16.60;99.80
3980;DHT22;2004;52.452;13.120;2022-07-06T06:50:14;16.60;99.90
3980;DHT22;2004;52.452;13.120;2022-07-06T06:58:04;16.80;99.90
3980;DHT22;2004;52.452;13.120;2022-07-06T07:05:55;17.10;99.90
3980;DHT22;2004;52.452;13.120;2022-07-06T07:13:45;17.10;98.50
3980;DHT22;2004;52.452;13.120;2022-07-06T07:21:36;17.20;96.50
3980;DHT22;2004;52.452;13.120;2022-07-06T07:29:27;17.20;94.10
3980;DHT22;2004;52.452;13.120;2022-07-06T07:37:17;17.30;91.30
3980;DHT22;2004;52.452;13.120;2022-07-06T07:45:08;17.30;89.00
3980;DHT22;2004;52.452;13.120;2022-07-06T07:52:59;17.50;88.10
3980;DHT22;2004;52.452;13.120;2022-07-06T08:00:49;17.70;85.10
3980;DHT22;2004;52.452;13.120;2022-07-06T08:08:40;17.70;85.90
3980;DHT22;2004;52.452;13.120;2022-07-06T08:16:31;17.80;83.50
3980;DHT22;2004;52.452;13.120;2022-07-06T08:24:22;17.80;81.40
3980;DHT22;2004;52.452;13.120;2022-07-06T08:32:12;17.90;81.20
3980;DHT22;2004;52.452;13.120;2022-07-06T08:40:04;18.00;79.00
3980;DHT22;2004;52.452;13.120;2022-07-06T08:47:55;18.10;77.70
3980;DHT22;2004;52.452;13.120;2022-07-06T08:55:48;18.00;72.10
3980;DHT22;2004;52.452;13.120;2022-07-06T09:03:45;18.00;71.10
3980;DHT22;2004;52.452;13.120;2022-07-06T09:11:38;18.10;69.30
3980;DHT22;2004;52.452;13.120;2022-07-06T09:19:31;18.20;71.90
3980;DHT22;2004;52.452;13.120;2022-07-06T09:27:22;18.30;71.40
3980;DHT22;2004;52.452;13.120;2022-07-06T09:35:27;18.40;70.20
3980;DHT22;2004;52.452;13.120;2022-07-06T09:43:20;18.50;68.50
3980;DHT22;2004;52.452;13.120;2022-07-06T09:51:15;18.50;69.70
3980;DHT22;2004;52.452;13.120;2022-07-06T09:59:09;18.40;68.20
3980;DHT22;2004;52.452;13.120;2022-07-06T10:07:00;18.30;65.40
3980;DHT22;2004;52.452;13.120;2022-07-06T10:14:51;18.40;65.80
3980;DHT22;2004;52.452;13.120;2022-07-06T10:22:42;18.50;68.00
3980;DHT22;2004;52.452;13.120;2022-07-06T10:30:34;18.60;66.00
3980;DHT22;2004;52.452;13.120;2022-07-06T10:38:32;18.70;68.50
3980;DHT22;2004;52.452;13.120;2022-07-06T10:46:27;19.00;67.40
3980;DHT22;2004;52.452;13.120;2022-07-06T10:54:21;19.30;63.60
3980;DHT22;2004;52.452;13.120;2022-07-06T11:02:16;19.20;64.30
3980;DHT22;2004;52.452;13.120;2022-07-06T11:10:07;19.00;64.10
3980;DHT22;2004;52.452;13.120;2022-07-06T11:18:11;19.20;66.90
3980;DHT22;2004;52.452;13.120;2022-07-06T11:26:03;19.50;63.50
3980;DHT22;2004;52.452;13.120;2022-07-06T11:33:53;19.50;62.40
3980;DHT22;2004;52.452;13.120;2022-07-06T11:41:44;20.00;62.80
3980;DHT22;2004;52.452;13.120;2022-07-06T11:49:37;20.10;62.90
3980;DHT22;2004;52.452;13.120;2022-07-06T11:57:31;19.90;62.40
3980;DHT22;2004;52.452;13.120;2022-07-06T12:05:30;19.80;61.20
3980;DHT22;2004;52.452;13.120;2022-07-06T12:13:21;19.90;63.20
3980;DHT22;2004;52.452;13.120;2022-07-06T12:21:18;20.10;63.60
3980;DHT22;2004;52.452;13.120;2022-07-06T12:29:10;20.40;63.50
3980;DHT22;2004;52.452;13.120;2022-07-06T12:37:08;20.40;60.20
3980;DHT22;2004;52.452;13.120;2022-07-06T12:44:59;20.40;58.80
3980;DHT22;2004;52.452;13.120;2022-07-06T12:52:49;20.50;59.70
3980;DHT22;2004;52.452;13.120;2022-07-06T13:00:46;20.50;59.50
3980;DHT22;2004;52.452;13.120;2022-07-06T13:08:36;20.50;59.80
3980;DHT22;2004;52.452;13.120;2022-07-06T13:16:27;20.40;60.10
3980;DHT22;2004;52.452;13.120;2022-07-06T13:24:24;20.20;60.10
3980;DHT22;2004;52.452;13.120;2022-07-06T13:32:15;20.10;59.60
3980;DHT22;2004;52.452;13.120;2022-07-06T13:40:06;20.10;60.00
3980;DHT22;2004;52.452;13.120;2022-07-06T13:47:56;20.10;62.50
3980;DHT22;2004;52.452;13.120;2022-07-06T13:55:48;20.20;59.50
3980;DHT22;2004;52.452;13.120;2022-07-06T14:03:38;20.10;59.10
3980;DHT22;2004;52.452;13.120;2022-07-06T14:11:29;19.90;60.40
3980;DHT22;2004;52.452;13.120;2022-07-06T14:19:20;19.70;60.50
3980;DHT22;2004;52.452;13.120;2022-07-06T14:27:13;19.60;60.40
3980;DHT22;2004;52.452;13.120;2022-07-06T14:35:04;19.50;60.80
3980;DHT22;2004;52.452;13.120;2022-07-06T14:42:54;19.40;61.60
3980;DHT22;2004;52.452;13.120;2022-07-06T14:50:45;19.30;61.70
3980;DHT22;2004;52.452;13.120;2022-07-06T14:58:35;19.20;63.10
3980;DHT22;2004;52.452;13.120;2022-07-06T15:06:26;19.30;62.30
3980;DHT22;2004;52.452;13.120;2022-07-06T15:14:17;19.30;63.30
3980;DHT22;2004;52.452;13.120;2022-07-06T15:22:08;19.40;63.60
3980;DHT22;2004;52.452;13.120;2022-07-06T15:29:59;19.50;62.50
3980;DHT22;2004;52.452;13.120;2022-07-06T15:37:49;19.50;64.00
3980;DHT22;2004;52.452;13.120;2022-07-06T15:45:40;19.70;64.40
3980;DHT22;2004;52.452;13.120;2022-07-06T15:53:31;19.70;66.20
3980;DHT22;2004;52.452;13.120;2022-07-06T16:01:22;19.70;64.00
3980;DHT22;2004;52.452;13.120;2022-07-06T16:09:12;19.70;63.40
3980;DHT22;2004;52.452;13.120;2022-07-06T16:17:03;19.70;61.70
3980;DHT22;2004;52.452;13.120;2022-07-06T16:24:54;19.60;63.40
3980;DHT22;2004;52.452;13.120;2022-07-06T16:32:44;19.50;63.00
3980;DHT22;2004;52.452;13.120;2022-07-06T16:40:35;19.60;62.00
3980;DHT22;2004;52.452;13.120;2022-07-06T16:48:25;19.50;61.20
3980;DHT22;2004;52.452;13.120;2022-07-06T16:56:16;19.40;60.90
3980;DHT22;2004;52.452;13.120;2022-07-06T17:04:06;19.40;61.20
3980;DHT22;2004;52.452;13.120;2022-07-06T17:11:57;19.40;62.30
3980;DHT22;2004;52.452;13.120;2022-07-06T17:19:48;19.40;63.20
3980;DHT22;2004;52.452;13.120;2022-07-06T17:27:38;19.30;63.70
3980;DHT22;2004;52.452;13.120;2022-07-06T17:35:29;19.20;64.40
3980;DHT22;2004;52.452;13.120;2022-07-06T17:43:19;19.10;65.30
3980;DHT22;2004;52.452;13.120;2022-07-06T17:51:10;19.00;65.70
3980;DHT22;2004;52.452;13.120;2022-07-06T17:59:01;18.90;66.00
3980;DHT22;2004;52.452;13.120;2022-07-06T18:06:51;18.90;66.70
3980;DHT22;2004;52.452;13.120;2022-07-06T18:14:42;18.90;66.40
3980;DHT22;2004;52.452;13.120;2022-07-06T18:22:32;18.80;66.70
3980;DHT22;2004;52.452;13.120;2022-07-06T18:30:23;18.80;66.90
3980;DHT22;2004;52.452;13.120;2022-07-06T18:38:13;18.70;67.80
3980;DHT22;2004;52.452;13.120;2022-07-06T18:46:04;18.70;68.40
3980;DHT22;2004;52.452;13.120;2022-07-06T18:53:55;18.70;68.70
3980;DHT22;2004;52.452;13.120;2022-07-06T19:01:45;18.60;69.40
3980;DHT22;2004;52.452;13.120;2022-07-06T19:09:36;18.60;70.40
3980;DHT22;2004;52.452;13.120;2022-07-06T19:17:26;18.50;70.90
3980;DHT22;2004;52.452;13.120;2022-07-06T19:25:18;18.40;73.90
3980;DHT22;2004;52.452;13.120;2022-07-06T19:33:09;18.20;73.50
3980;DHT22;2004;52.452;13.120;2022-07-06T19:40:59;18.10;75.40
3980;DHT22;2004;52.452;13.120;2022-07-06T19:48:50;18.00;75.30
3980;DHT22;2004;52.452;13.120;2022-07-06T19:56:40;17.80;77.70
3980;DHT22;2004;52.452;13.120;2022-07-06T20:04:31;17.70;76.70
3980;DHT22;2004;52.452;13.120;2022-07-06T20:12:21;17.50;78.20
3980;DHT22;2004;52.452;13.120;2022-07-06T20:20:12;17.30;79.70
3980;DHT22;2004;52.452;13.120;2022-07-06T20:28:03;17.20;81.10
3980;DHT22;2004;52.452;13.120;2022-07-06T20:35:54;17.10;82.50
3980;DHT22;2004;52.452;13.120;2022-07-06T20:43:45;16.90;83.90
3980;DHT22;2004;52.452;13.120;2022-07-06T20:51:35;16.80;86.60
3980;DHT22;2004;52.452;13.120;2022-07-06T20:59:26;16.70;88.60
3980;DHT22;2004;52.452;13.120;2022-07-06T21:07:17;16.60;90.80
3980;DHT22;2004;52.452;13.120;2022-07-06T21:15:08;16.60;93.40
3980;DHT22;2004;52.452;13.120;2022-07-06T21:23:01;16.50;98.90
3980;DHT22;2004;52.452;13.120;2022-07-06T21:30:51;16.50;99.90
3980;DHT22;2004;52.452;13.120;2022-07-06T21:38:42;16.40;99.90
3980;DHT22;2004;52.452;13.120;2022-07-06T21:46:33;16.30;99.90
3980;DHT22;2004;52.452;13.120;2022-07-06T21:54:23;16.20;99.90
3980;DHT22;2004;52.452;13.120;2022-07-06T22:02:14;16.10;99.90
3980;DHT22;2004;52.452;13.120;2022-07-06T22:10:05;16.00;99.90
3980;DHT22;2004;52.452;13.120;2022-07-06T22:17:56;15.90;99.90
3980;DHT22;2004;52.452;13.120;2022-07-06T22:25:46;15.90;99.90
3980;DHT22;2004;52.452;13.120;2022-07-06T22:33:37;15.80;99.90
3980;DHT22;2004;52.452;13.120;2022-07-06T22:41:28;15.80;99.90
3980;DHT22;2004;52.452;13.120;2022-07-06T22:49:20;15.80;99.90
3980;DHT22;2004;52.452;13.120;2022-07-06T22:57:11;15.80;99.90
3980;DHT22;2004;52.452;13.120;2022-07-06T23:05:01;15.70;99.90
3980;DHT22;2004;52.452;13.120;2022-07-06T23:12:52;15.70;99.90
3980;DHT22;2004;52.452;13.120;2022-07-06T23:20:43;15.80;99.90
3980;DHT22;2004;52.452;13.120;2022-07-06T23:28:33;15.80;98.70
3980;DHT22;2004;52.452;13.120;2022-07-06T23:36:24;15.90;99.60
3980;DHT22;2004;52.452;13.120;2022-07-06T23:44:14;15.90;95.10
3980;DHT22;2004;52.452;13.120;2022-07-06T23:52:05;15.90;93.00
3980;DHT22;2004;52.452;13.120;2022-07-06T23:59:56;16.00;93.70
